createdAt,value
2023-04-08T00:00:41.453Z,3.65
2023-04-08T00:03:09.258Z,3.58
2023-04-08T00:05:36.732Z,3.60
2023-04-08T00:08:04.183Z,3.60
2023-04-08T00:10:31.866Z,3.28
2023-04-08T00:13:01.060Z,3.35
2023-04-08T00:15:28.380Z,3.34
2023-04-08T00:17:57.193Z,3.43
2023-04-08T00:20:25.498Z,3.23
2023-04-08T00:22:52.788Z,3.24
2023-04-08T00:25:21.949Z,3.26
2023-04-08T00:27:50.942Z,3.25
2023-04-08T00:30:18.327Z,3.28
2023-04-08T00:32:46.938Z,3.30
2023-04-08T00:35:14.545Z,3.57
2023-04-08T00:37:41.971Z,3.38
2023-04-08T00:40:10.042Z,3.30
2023-04-08T00:42:37.435Z,3.25
2023-04-08T00:45:05.515Z,3.02
2023-04-08T00:47:33.264Z,3.11
2023-04-08T00:50:00.626Z,3.10
2023-04-08T00:52:28.112Z,3.11
2023-04-08T00:54:56.430Z,2.90
2023-04-08T00:57:23.809Z,3.05
2023-04-08T00:59:51.771Z,3.04
2023-04-08T01:02:27.917Z,2.93
2023-04-08T01:05:04.377Z,3.10
2023-04-08T01:07:35.912Z,3.02
2023-04-08T01:10:08.090Z,3.08
2023-04-08T01:12:42.092Z,3.09
2023-04-08T01:15:12.717Z,3.17
2023-04-08T01:17:42.361Z,2.89
2023-04-08T01:20:13.586Z,2.78
2023-04-08T01:22:58.466Z,2.78
2023-04-08T01:25:34.418Z,2.93
2023-04-08T01:28:06.120Z,2.89
2023-04-08T01:30:34.918Z,2.86
2023-04-08T01:33:04.307Z,2.92
2023-04-08T01:35:32.494Z,3.01
2023-04-08T01:38:00.768Z,2.88
2023-04-08T01:40:28.584Z,2.99
2023-04-08T01:42:57.783Z,3.12
2023-04-08T01:45:26.239Z,3.12
2023-04-08T01:47:54.405Z,3.00
2023-04-08T01:50:23.002Z,3.02
2023-04-08T01:52:53.823Z,3.10
2023-04-08T01:55:22.221Z,3.08
2023-04-08T01:57:52.366Z,3.09
2023-04-08T02:00:24.191Z,3.00
2023-04-08T02:02:53.308Z,3.06
2023-04-08T02:05:20.986Z,3.16
2023-04-08T02:07:49.320Z,2.92
2023-04-08T02:10:17.027Z,3.01
2023-04-08T02:12:46.089Z,3.07
2023-04-08T02:15:14.170Z,3.00
2023-04-08T02:17:56.080Z,3.03
2023-04-08T02:20:43.482Z,3.12
2023-04-08T02:23:21.552Z,3.19
2023-04-08T02:25:50.685Z,3.25
2023-04-08T02:28:19.941Z,3.05
2023-04-08T02:30:49.362Z,2.88
2023-04-08T02:33:21.097Z,2.99
2023-04-08T02:35:50.762Z,2.86
2023-04-08T02:38:18.504Z,2.78
2023-04-08T02:40:45.900Z,2.87
2023-04-08T02:43:13.164Z,2.90
2023-04-08T02:45:47.493Z,2.87
2023-04-08T02:48:17.574Z,2.98
2023-04-08T02:50:49.504Z,3.10
2023-04-08T02:53:16.853Z,3.10
2023-04-08T02:55:44.245Z,3.06
2023-04-08T02:58:11.843Z,2.96
2023-04-08T03:00:39.915Z,2.81
2023-04-08T03:03:07.551Z,2.93
2023-04-08T03:05:35.471Z,2.49
2023-04-08T03:08:02.882Z,2.86
2023-04-08T03:10:30.543Z,2.65
2023-04-08T03:12:58.214Z,2.73
2023-04-08T03:15:25.925Z,2.69
2023-04-08T03:17:53.264Z,2.74
2023-04-08T03:20:21.055Z,2.68
2023-04-08T03:22:48.684Z,2.82
2023-04-08T03:27:36.376Z,3.21
2023-04-08T03:30:04.366Z,3.21
2023-04-08T03:32:32.883Z,2.91
2023-04-08T03:35:15.378Z,2.73
2023-04-08T03:37:47.008Z,2.78
2023-04-08T03:40:14.645Z,2.87
2023-04-08T03:42:43.224Z,2.86
2023-04-08T03:45:11.194Z,2.94
2023-04-08T03:47:40.070Z,2.96
2023-04-08T03:50:08.364Z,2.95
2023-04-08T03:52:36.378Z,2.93
2023-04-08T03:55:03.975Z,2.93
2023-04-08T03:57:31.353Z,2.87
2023-04-08T03:59:59.396Z,2.93
2023-04-08T04:02:26.981Z,3.05
2023-04-08T04:04:55.288Z,2.94
2023-04-08T04:07:23.173Z,2.99
2023-04-08T04:09:54.319Z,2.95
2023-04-08T04:12:22.172Z,3.12
2023-04-08T04:14:49.595Z,3.14
2023-04-08T04:17:17.006Z,2.95
2023-04-08T04:19:44.856Z,3.05
2023-04-08T04:22:12.424Z,3.05
2023-04-08T04:24:40.075Z,3.03
2023-04-08T04:27:08.160Z,3.03
2023-04-08T04:29:36.384Z,3.02
2023-04-08T04:32:04.232Z,3.11
2023-04-08T04:34:32.802Z,3.16
2023-04-08T04:37:00.086Z,3.10
2023-04-08T04:39:27.583Z,3.11
2023-04-08T04:41:55.545Z,3.08
2023-04-08T04:44:24.276Z,3.15
2023-04-08T04:46:51.870Z,3.19
2023-04-08T04:49:19.996Z,3.20
2023-04-08T04:51:48.330Z,3.22
2023-04-08T04:54:18.076Z,3.08
2023-04-08T04:56:46.132Z,3.12
2023-04-08T04:59:13.679Z,3.09
2023-04-08T05:01:41.361Z,3.16
2023-04-08T05:04:09.064Z,3.22
2023-04-08T05:06:36.948Z,3.36
2023-04-08T05:09:07.741Z,3.22
2023-04-08T05:11:36.011Z,3.19
2023-04-08T05:14:03.188Z,3.25
2023-04-08T05:16:30.456Z,3.38
2023-04-08T05:18:58.074Z,3.39
2023-04-08T05:21:26.336Z,3.36
2023-04-08T05:23:54.494Z,3.49
2023-04-08T05:26:22.619Z,3.53
2023-04-08T05:28:51.581Z,3.60
2023-04-08T05:31:19.898Z,3.65
2023-04-08T05:33:48.659Z,3.67
2023-04-08T05:36:16.206Z,3.80
2023-04-08T05:38:44.472Z,3.86
2023-04-08T05:41:12.190Z,3.90
2023-04-08T05:43:40.562Z,4.09
2023-04-08T05:46:09.861Z,4.21
2023-04-08T05:48:37.761Z,4.26
2023-04-08T05:51:05.835Z,4.45
2023-04-08T05:53:33.176Z,4.55
2023-04-08T05:56:00.898Z,4.62
2023-04-08T05:58:28.295Z,4.75
2023-04-08T06:00:55.832Z,4.85
2023-04-08T06:03:24.458Z,4.94
2023-04-08T06:05:51.875Z,5.02
2023-04-08T06:08:19.273Z,5.11
2023-04-08T06:10:51.299Z,5.07
2023-04-08T06:13:21.487Z,5.16
2023-04-08T06:15:50.049Z,5.27
2023-04-08T06:18:17.537Z,5.29
2023-04-08T06:20:44.890Z,5.21
2023-04-08T06:23:12.877Z,5.25
2023-04-08T06:25:40.584Z,5.29
2023-04-08T06:28:08.173Z,5.21
2023-04-08T06:30:36.021Z,5.32
2023-04-08T06:33:03.516Z,5.37
2023-04-08T06:35:32.641Z,5.48
2023-04-08T06:38:00.441Z,5.50
2023-04-08T06:40:27.816Z,5.44
2023-04-08T06:42:55.882Z,5.44
2023-04-08T06:45:28.885Z,5.63
2023-04-08T06:47:56.994Z,5.52
2023-04-08T06:50:24.458Z,5.58
2023-04-08T06:52:52.134Z,5.25
2023-04-08T06:55:19.940Z,5.37
2023-04-08T06:57:47.506Z,5.27
2023-04-08T07:00:15.696Z,5.44
2023-04-08T07:02:43.145Z,5.35
2023-04-08T07:05:10.899Z,5.37
2023-04-08T07:07:38.559Z,5.43
2023-04-08T07:10:07.268Z,5.47
2023-04-08T07:12:35.494Z,5.41
2023-04-08T07:15:04.128Z,5.53
2023-04-08T07:17:31.470Z,5.59
2023-04-08T07:19:58.780Z,5.56
2023-04-08T07:22:26.946Z,5.78
2023-04-08T07:24:54.327Z,5.65
2023-04-08T07:27:21.817Z,5.79
2023-04-08T07:29:54.839Z,5.67
2023-04-08T07:32:22.474Z,5.79
2023-04-08T07:34:50.225Z,5.88
2023-04-08T07:37:18.372Z,6.06
2023-04-08T07:39:45.920Z,6.02
2023-04-08T07:42:13.243Z,5.96
2023-04-08T07:44:41.051Z,5.94
2023-04-08T07:47:09.969Z,5.82
2023-04-08T07:49:37.724Z,6.00
2023-04-08T07:52:06.559Z,5.89
2023-04-08T07:54:37.167Z,6.20
2023-04-08T07:57:04.847Z,6.38
2023-04-08T07:59:32.736Z,6.47
2023-04-08T08:02:00.253Z,6.58
2023-04-08T08:04:28.077Z,6.41
2023-04-08T08:06:55.761Z,6.71
2023-04-08T08:09:23.436Z,6.85
2023-04-08T08:11:51.217Z,6.85
2023-04-08T08:14:18.890Z,6.99
2023-04-08T08:16:46.260Z,6.93
2023-04-08T08:19:14.771Z,6.98
2023-04-08T08:21:42.172Z,6.99
2023-04-08T08:24:12.539Z,7.16
2023-04-08T08:26:40.665Z,7.16
2023-04-08T08:29:09.075Z,7.46
2023-04-08T08:31:36.917Z,7.55
2023-04-08T08:34:04.704Z,7.94
2023-04-08T08:36:33.479Z,7.85
2023-04-08T08:39:02.624Z,7.84
2023-04-08T08:41:36.726Z,8.02
2023-04-08T08:44:06.878Z,7.98
2023-04-08T08:46:35.175Z,8.20
2023-04-08T08:49:02.820Z,8.23
2023-04-08T08:51:30.556Z,8.47
2023-04-08T08:53:58.276Z,8.42
2023-04-08T08:56:25.949Z,8.35
2023-04-08T08:58:53.332Z,8.04
2023-04-08T09:01:31.493Z,8.33
2023-04-08T09:04:15.963Z,8.16
2023-04-08T09:06:45.468Z,8.12
2023-04-08T09:09:13.270Z,8.10
2023-04-08T09:11:42.651Z,8.66
2023-04-08T09:14:24.628Z,8.59
2023-04-08T09:16:53.231Z,8.75
2023-04-08T09:19:21.289Z,8.79
2023-04-08T09:22:08.939Z,8.91
2023-04-08T09:24:37.697Z,8.98
2023-04-08T09:27:06.075Z,9.14
2023-04-08T09:29:37.447Z,9.26
2023-04-08T09:32:07.521Z,9.67
2023-04-08T09:34:35.029Z,9.74
2023-04-08T09:37:02.458Z,9.99
2023-04-08T09:39:30.988Z,9.80
2023-04-08T09:42:01.598Z,9.96
2023-04-08T09:44:29.491Z,9.81
2023-04-08T09:47:08.670Z,9.63
2023-04-08T09:49:45.003Z,9.99
2023-04-08T09:52:22.760Z,10.12
2023-04-08T09:54:58.140Z,10.32
2023-04-08T09:57:41.900Z,10.18
2023-04-08T10:00:15.219Z,9.96
2023-04-08T10:03:07.632Z,10.79
2023-04-08T10:05:40.948Z,10.44
2023-04-08T10:08:08.954Z,10.74
2023-04-08T10:10:38.775Z,10.68
2023-04-08T10:13:08.058Z,10.13
2023-04-08T10:15:37.702Z,10.17
2023-04-08T10:18:06.727Z,9.94
2023-04-08T10:20:34.433Z,9.99
2023-04-08T10:23:03.791Z,10.11
2023-04-08T10:25:38.395Z,10.14
2023-04-08T10:28:12.236Z,10.61
2023-04-08T10:30:52.280Z,11.07
2023-04-08T10:33:41.093Z,11.90
2023-04-08T10:36:15.540Z,12.26
2023-04-08T10:38:43.637Z,12.44
2023-04-08T10:41:12.249Z,11.98
2023-04-08T10:43:39.600Z,11.77
2023-04-08T10:46:11.974Z,11.47
2023-04-08T10:48:39.740Z,11.40
2023-04-08T10:51:07.731Z,11.18
2023-04-08T10:53:38.557Z,11.32
2023-04-08T10:56:07.473Z,11.41
2023-04-08T10:58:36.912Z,11.57
2023-04-08T11:01:07.055Z,11.22
2023-04-08T11:03:36.343Z,10.88
2023-04-08T11:06:04.319Z,10.61
2023-04-08T11:08:33.613Z,10.57
2023-04-08T11:11:02.305Z,10.66
2023-04-08T11:13:30.920Z,10.40
2023-04-08T11:16:00.328Z,10.63
2023-04-08T11:18:28.953Z,10.99
2023-04-08T11:20:57.602Z,11.17
2023-04-08T11:23:26.641Z,11.68
2023-04-08T11:25:54.925Z,11.82
2023-04-08T11:28:22.873Z,12.14
2023-04-08T11:30:50.640Z,11.95
2023-04-08T11:33:18.865Z,11.54
2023-04-08T11:35:46.274Z,10.97
2023-04-08T11:38:13.596Z,11.26
2023-04-08T11:40:52.419Z,11.63
2023-04-08T11:43:20.183Z,11.89
2023-04-08T11:45:48.102Z,11.40
2023-04-08T11:48:16.825Z,11.12
2023-04-08T11:50:45.777Z,11.22
2023-04-08T11:53:20.840Z,11.00
2023-04-08T11:55:49.281Z,10.54
2023-04-08T11:58:17.238Z,10.32
2023-04-08T12:00:45.969Z,10.03
2023-04-08T12:03:14.288Z,10.18
2023-04-08T12:05:42.768Z,10.04
2023-04-08T12:08:10.273Z,10.16
2023-04-08T12:10:38.168Z,10.45
2023-04-08T12:13:05.512Z,10.70
2023-04-08T12:15:33.127Z,10.64
2023-04-08T12:18:00.835Z,10.79
2023-04-08T12:20:28.223Z,10.85
2023-04-08T12:22:55.847Z,11.28
2023-04-08T12:25:23.690Z,11.61
2023-04-08T12:27:50.986Z,11.11
2023-04-08T12:30:18.315Z,11.08
2023-04-08T12:32:47.803Z,10.87
2023-04-08T12:35:15.356Z,10.68
2023-04-08T12:37:42.651Z,10.74
2023-04-08T12:40:11.231Z,10.96
2023-04-08T12:42:38.479Z,11.02
2023-04-08T12:45:06.789Z,10.97
2023-04-08T12:47:34.555Z,11.37
2023-04-08T12:50:02.349Z,11.39
2023-04-08T12:52:29.723Z,11.50
2023-04-08T12:54:57.626Z,11.24
2023-04-08T12:57:24.909Z,11.23
2023-04-08T12:59:52.181Z,10.91
2023-04-08T13:02:19.922Z,10.72
2023-04-08T13:04:47.566Z,10.58
2023-04-08T13:07:14.884Z,10.25
2023-04-08T13:09:43.728Z,10.10
2023-04-08T13:12:12.420Z,10.05
2023-04-08T13:14:39.777Z,10.00
2023-04-08T13:17:07.652Z,9.96
2023-04-08T13:19:35.782Z,9.79
2023-04-08T13:22:03.170Z,9.70
2023-04-08T13:24:30.851Z,9.80
2023-04-08T13:26:58.567Z,9.84
2023-04-08T13:29:26.101Z,10.03
2023-04-08T13:31:53.819Z,10.06
2023-04-08T13:34:21.392Z,9.93
2023-04-08T13:36:48.782Z,9.90
2023-04-08T13:39:16.410Z,9.82
2023-04-08T13:41:43.847Z,9.70
2023-04-08T13:44:11.641Z,9.73
2023-04-08T13:46:39.845Z,9.32
2023-04-08T13:49:07.261Z,9.32
2023-04-08T13:51:34.538Z,9.44
2023-04-08T13:54:02.709Z,9.63
2023-04-08T13:56:30.056Z,9.71
2023-04-08T13:58:57.876Z,9.63
2023-04-08T14:01:26.013Z,9.65
2023-04-08T14:03:53.810Z,9.62
2023-04-08T14:06:21.166Z,9.52
2023-04-08T14:08:48.666Z,9.50
2023-04-08T14:11:16.556Z,9.42
2023-04-08T14:13:43.884Z,8.95
2023-04-08T14:16:11.330Z,9.22
2023-04-08T14:18:39.605Z,9.36
2023-04-08T14:21:07.685Z,9.40
2023-04-08T14:23:35.030Z,9.41
2023-04-08T14:26:03.168Z,9.55
2023-04-08T14:28:30.550Z,9.87
2023-04-08T14:30:58.100Z,10.15
2023-04-08T14:33:25.859Z,10.23
2023-04-08T14:35:53.494Z,10.23
2023-04-08T14:38:21.603Z,9.89
2023-04-08T14:40:49.359Z,10.11
2023-04-08T14:43:16.700Z,11.34
2023-04-08T14:45:45.180Z,11.80
2023-04-08T14:48:12.936Z,11.61
2023-04-08T14:50:40.461Z,11.93
2023-04-08T14:53:07.807Z,12.11
2023-04-08T14:55:35.623Z,12.94
2023-04-08T14:58:03.291Z,13.00
2023-04-08T15:00:30.717Z,13.07
2023-04-08T15:02:59.149Z,12.74
2023-04-08T15:05:26.761Z,13.27
2023-04-08T15:07:54.516Z,13.50
2023-04-08T15:10:22.180Z,11.58
2023-04-08T15:12:49.564Z,10.98
2023-04-08T15:15:17.030Z,10.53
2023-04-08T15:17:44.689Z,9.78
2023-04-08T15:20:12.614Z,9.49
2023-04-08T15:22:40.233Z,9.49
2023-04-08T15:25:08.323Z,9.32
2023-04-08T15:27:36.818Z,9.36
2023-04-08T15:30:07.908Z,9.36
2023-04-08T15:32:35.786Z,9.26
2023-04-08T15:35:03.426Z,9.31
2023-04-08T15:37:31.150Z,9.33
2023-04-08T15:39:59.212Z,9.43
2023-04-08T15:42:27.297Z,9.44
2023-04-08T15:44:54.670Z,9.42
2023-04-08T15:47:22.822Z,9.38
2023-04-08T15:49:53.070Z,9.30
2023-04-08T15:52:20.424Z,9.15
2023-04-08T15:54:48.037Z,9.19
2023-04-08T15:57:16.339Z,9.19
2023-04-08T15:59:43.774Z,9.04
2023-04-08T16:02:12.030Z,9.18
2023-04-08T16:04:39.907Z,9.23
2023-04-08T16:07:07.771Z,9.12
2023-04-08T16:09:35.070Z,9.08
2023-04-08T16:12:03.081Z,9.02
2023-04-08T16:14:30.442Z,9.16
2023-04-08T16:16:57.840Z,9.12
2023-04-08T16:19:26.368Z,9.15
2023-04-08T16:21:53.747Z,9.04
2023-04-08T16:24:21.733Z,9.15
2023-04-08T16:26:49.451Z,9.02
2023-04-08T16:29:16.857Z,9.10
2023-04-08T16:31:44.352Z,9.10
2023-04-08T16:34:12.085Z,8.91
2023-04-08T16:36:39.709Z,9.07
2023-04-08T16:39:07.059Z,8.86
2023-04-08T16:41:34.718Z,8.88
2023-04-08T16:44:01.971Z,8.76
2023-04-08T16:46:29.328Z,8.48
2023-04-08T16:48:57.014Z,8.39
2023-04-08T16:51:24.305Z,8.51
2023-04-08T16:53:51.970Z,8.51
2023-04-08T16:56:19.937Z,8.24
2023-04-08T16:58:47.392Z,8.22
2023-04-08T17:01:14.876Z,8.17
2023-04-08T17:03:42.888Z,8.05
2023-04-08T17:06:14.484Z,7.91
2023-04-08T17:08:43.542Z,7.89
2023-04-08T17:11:13.316Z,8.11
2023-04-08T17:13:42.604Z,7.91
2023-04-08T17:16:14.695Z,7.93
2023-04-08T17:18:43.276Z,8.10
2023-04-08T17:21:12.144Z,7.93
2023-04-08T17:23:40.064Z,8.06
2023-04-08T17:26:09.870Z,8.19
2023-04-08T17:28:37.309Z,8.10
2023-04-08T17:31:06.949Z,8.27
2023-04-08T17:33:41.560Z,8.32
2023-04-08T17:36:08.837Z,8.42
2023-04-08T17:38:40.109Z,8.35
2023-04-08T17:41:08.433Z,8.48
2023-04-08T17:43:36.218Z,8.44
2023-04-08T17:46:04.119Z,8.47
2023-04-08T17:48:31.602Z,8.39
2023-04-08T17:51:07.150Z,8.42
2023-04-08T17:53:35.528Z,8.48
2023-04-08T17:56:02.894Z,8.41
2023-04-08T17:58:30.201Z,8.21
2023-04-08T18:00:58.020Z,8.12
2023-04-08T18:03:25.956Z,8.15
2023-04-08T18:05:55.407Z,7.90
2023-04-08T18:08:23.433Z,8.05
2023-04-08T18:10:51.243Z,8.05
2023-04-08T18:13:18.907Z,8.35
2023-04-08T18:15:46.580Z,8.40
2023-04-08T18:18:19.644Z,8.40
2023-04-08T18:20:48.978Z,8.41
2023-04-08T18:23:17.338Z,8.39
2023-04-08T18:25:50.440Z,8.45
2023-04-08T18:28:18.746Z,8.50
2023-04-08T18:30:51.672Z,8.45
2023-04-08T18:33:20.449Z,8.44
2023-04-08T18:35:47.808Z,8.55
2023-04-08T18:38:15.331Z,8.43
2023-04-08T18:40:45.805Z,8.30
2023-04-08T18:43:13.941Z,8.39
2023-04-08T18:45:41.718Z,8.31
2023-04-08T18:48:09.460Z,8.19
2023-04-08T18:50:36.767Z,8.03
2023-04-08T18:53:04.143Z,8.10
2023-04-08T18:55:36.129Z,8.12
2023-04-08T18:58:03.643Z,7.88
2023-04-08T19:00:31.888Z,7.47
2023-04-08T19:02:59.606Z,7.29
2023-04-08T19:05:27.053Z,7.35
2023-04-08T19:07:54.509Z,7.43
2023-04-08T19:10:22.640Z,7.48
2023-04-08T19:12:50.135Z,7.48
2023-04-08T19:15:17.706Z,7.56
2023-04-08T19:17:46.241Z,7.46
2023-04-08T19:20:13.784Z,7.64
2023-04-08T19:22:41.348Z,7.73
2023-04-08T19:25:09.223Z,7.72
2023-04-08T19:27:36.772Z,7.79
2023-04-08T19:30:04.468Z,7.51
2023-04-08T19:32:35.126Z,7.36
2023-04-08T19:35:02.583Z,7.24
2023-04-08T19:37:30.028Z,6.99
2023-04-08T19:39:57.739Z,7.18
2023-04-08T19:42:25.447Z,7.26
2023-04-08T19:44:53.248Z,7.35
2023-04-08T19:47:20.947Z,7.42
2023-04-08T19:49:48.390Z,7.49
2023-04-08T19:52:15.744Z,7.71
2023-04-08T19:54:43.810Z,7.54
2023-04-08T19:57:12.454Z,7.72
2023-04-08T19:59:39.768Z,7.40
2023-04-08T20:02:07.943Z,7.37
2023-04-08T20:04:35.843Z,7.28
2023-04-08T20:07:03.996Z,7.35
2023-04-08T20:09:32.800Z,7.41
2023-04-08T20:12:06.548Z,7.51
2023-04-08T20:14:40.644Z,7.61
2023-04-08T20:17:08.421Z,7.72
2023-04-08T20:19:35.823Z,7.55
2023-04-08T20:22:03.462Z,7.42
2023-04-08T20:24:31.802Z,7.37
2023-04-08T20:27:00.226Z,7.39
2023-04-08T20:29:28.688Z,7.37
2023-04-08T20:31:56.436Z,7.39
2023-04-08T20:34:23.921Z,7.45
2023-04-08T20:36:52.275Z,7.46
2023-04-08T20:39:20.063Z,7.34
2023-04-08T20:41:47.460Z,7.49
2023-04-08T20:44:14.867Z,7.62
2023-04-08T20:46:43.057Z,7.57
2023-04-08T20:49:10.611Z,7.34
2023-04-08T20:51:37.952Z,7.47
2023-04-08T20:54:05.727Z,7.37
2023-04-08T20:56:33.055Z,7.40
2023-04-08T20:59:01.681Z,7.39
2023-04-08T21:01:29.680Z,7.42
2023-04-08T21:03:57.350Z,7.14
2023-04-08T21:06:24.718Z,7.34
2023-04-08T21:08:52.647Z,6.87
2023-04-08T21:11:20.090Z,6.94
2023-04-08T21:13:49.065Z,6.61
2023-04-08T21:16:17.159Z,6.78
2023-04-08T21:18:44.583Z,7.06
2023-04-08T21:21:12.008Z,7.15
2023-04-08T21:23:39.658Z,7.13
2023-04-08T21:26:13.746Z,7.10
2023-04-08T21:28:41.596Z,7.07
2023-04-08T21:31:13.614Z,7.02
2023-04-08T21:33:41.313Z,7.06
2023-04-08T21:36:08.869Z,6.87
2023-04-08T21:38:36.444Z,6.88
2023-04-08T21:41:04.094Z,6.96
2023-04-08T21:43:31.835Z,7.00
2023-04-08T21:45:59.183Z,6.99
2023-04-08T21:48:26.815Z,7.34
2023-04-08T21:50:54.203Z,7.30
2023-04-08T21:53:22.519Z,7.35
2023-04-08T21:55:50.168Z,7.37
2023-04-08T21:58:18.195Z,7.25
2023-04-08T22:00:46.274Z,7.02
2023-04-08T22:03:14.304Z,7.05
2023-04-08T22:05:42.121Z,7.06
2023-04-08T22:08:09.445Z,7.07
2023-04-08T22:10:37.666Z,7.17
2023-04-08T22:13:04.961Z,7.19
2023-04-08T22:15:32.301Z,7.15
2023-04-08T22:18:00.426Z,7.23
2023-04-08T22:20:28.178Z,7.24
2023-04-08T22:22:55.530Z,7.18
2023-04-08T22:25:23.298Z,7.21
2023-04-08T22:27:50.694Z,7.33
2023-04-08T22:30:18.104Z,7.15
2023-04-08T22:32:46.005Z,7.12
2023-04-08T22:35:13.542Z,7.07
2023-04-08T22:37:41.803Z,7.16
2023-04-08T22:40:09.786Z,7.20
2023-04-08T22:42:37.115Z,7.19
2023-04-08T22:45:06.040Z,6.91
2023-04-08T22:47:33.567Z,6.88
2023-04-08T22:50:01.197Z,6.82
2023-04-08T22:52:28.601Z,6.81
2023-04-08T22:54:56.298Z,6.87
2023-04-08T22:57:23.746Z,6.97
2023-04-08T22:59:51.346Z,7.07
2023-04-08T23:02:19.164Z,7.01
2023-04-08T23:04:46.526Z,7.00
2023-04-08T23:07:14.081Z,7.10
2023-04-08T23:09:41.732Z,7.17
2023-04-08T23:12:09.067Z,7.25
2023-04-08T23:14:36.523Z,7.33
2023-04-08T23:17:05.573Z,7.25
2023-04-08T23:19:32.871Z,7.35
2023-04-08T23:22:00.176Z,7.16
2023-04-08T23:24:27.855Z,7.19
2023-04-08T23:26:55.087Z,7.05
2023-04-08T23:29:22.355Z,7.06
2023-04-08T23:31:49.966Z,7.05
2023-04-08T23:34:17.237Z,6.88
2023-04-08T23:36:44.641Z,6.86
2023-04-08T23:39:12.873Z,6.90
2023-04-08T23:41:40.419Z,7.04
2023-04-08T23:44:07.799Z,6.82
2023-04-08T23:46:35.394Z,6.96
2023-04-08T23:49:02.662Z,6.93
2023-04-08T23:51:30.021Z,7.04
2023-04-08T23:53:57.693Z,6.90
2023-04-08T23:56:24.874Z,6.90
2023-04-08T23:58:52.314Z,6.99
